Time;durP1;ratioP1;P1;durP2;ratioP2;P2;SDS_P1;SDS_P2;PMS_P1;PMS_P2;Temp;Humidity;BMP_temperature;BMP_pressure;BME280_temperature;BME280_humidity;BME280_pressure;Samples;Min_cycle;Max_cycle;Signal;HPM_P1;HPM_P2
2022/06/24 00:01:36;;;;;;;17.05;12.13;;;23.80;99.90;;;;;;5048013;28;20461;-70
2022/06/24 00:04:02;;;;;;;18.85;14.68;;;23.80;99.90;;;;;;5050525;28;20047;-70
2022/06/24 00:06:46;;;;;;;16.85;14.30;;;23.80;99.90;;;;;;5048706;28;20429;-70
2022/06/24 00:09:13;;;;;;;21.65;13.27;;;23.40;99.90;;;;;;5045732;28;20037;-71
2022/06/24 00:11:39;;;;;;;31.48;13.10;;;23.30;99.90;;;;;;5047330;28;20017;-72
2022/06/24 00:14:15;;;;;;;18.80;11.57;;;23.40;99.90;;;;;;5048613;28;20123;-72
2022/06/24 00:17:00;;;;;;;18.90;11.13;;;23.40;99.90;;;;;;5049794;28;20028;-70
2022/06/24 00:19:28;;;;;;;22.35;11.32;;;23.60;99.90;;;;;;5050347;28;20060;-70
2022/06/24 00:22:11;;;;;;;15.98;11.50;;;23.60;99.90;;;;;;5052647;28;20009;-70
2022/06/24 00:24:39;;;;;;;9.43;8.02;;;23.70;99.90;;;;;;5049434;28;20040;-70
2022/06/24 00:27:19;;;;;;;13.32;8.52;;;23.60;99.90;;;;;;5051860;28;20025;-71
2022/06/24 00:29:45;;;;;;;9.43;7.05;;;23.50;99.90;;;;;;5048439;28;20060;-70
2022/06/24 00:32:11;;;;;;;10.25;6.47;;;23.50;99.90;;;;;;5053875;28;20047;-70
2022/06/24 00:34:38;;;;;;;8.70;5.78;;;23.50;99.90;;;;;;5052603;28;20477;-70
2022/06/24 00:37:23;;;;;;;9.60;6.10;;;23.50;99.90;;;;;;5049293;28;20025;-70
2022/06/24 00:39:49;;;;;;;11.07;6.35;;;23.50;99.90;;;;;;5049963;28;20524;-69
2022/06/24 00:42:16;;;;;;;9.50;6.30;;;23.60;99.90;;;;;;5054748;28;20074;-70
2022/06/24 00:44:48;;;;;;;8.02;5.60;;;23.60;99.90;;;;;;5052628;28;20056;-71
2022/06/24 00:47:15;;;;;;;5.70;4.80;;;23.50;99.90;;;;;;5055135;28;20016;-70
2022/06/24 00:49:43;;;;;;;5.97;4.80;;;23.30;99.90;;;;;;5053660;28;20288;-70
2022/06/24 00:52:10;;;;;;;5.75;4.78;;;23.30;99.90;;;;;;5057980;28;20115;-70
2022/06/24 00:54:36;;;;;;;5.35;4.22;;;23.20;99.90;;;;;;5052420;28;20359;-69
2022/06/24 00:57:02;;;;;;;4.72;4.32;;;23.20;99.90;;;;;;5051781;28;20044;-69
2022/06/24 00:59:34;;;;;;;4.93;4.18;;;23.20;99.90;;;;;;5049568;28;20552;-69
2022/06/24 01:02:03;;;;;;;4.95;3.95;;;23.10;99.90;;;;;;5051669;28;20025;-68
2022/06/24 01:04:34;;;;;;;4.15;3.75;;;23.10;99.90;;;;;;5052877;28;20072;-69
2022/06/24 01:07:00;;;;;;;4.75;3.85;;;23.10;99.90;;;;;;5046404;28;20060;-69
2022/06/24 01:09:26;;;;;;;5.20;4.03;;;23.00;99.90;;;;;;5048858;28;20420;-68
2022/06/24 01:11:52;;;;;;;4.78;4.07;;;23.00;99.90;;;;;;5061053;28;20119;-69
2022/06/24 01:14:18;;;;;;;6.78;4.20;;;22.90;99.90;;;;;;5062573;28;20112;-69
2022/06/24 01:16:44;;;;;;;5.07;4.50;;;22.80;99.90;;;;;;5050768;28;20104;-69
2022/06/24 01:19:14;;;;;;;5.47;4.93;;;22.90;99.90;;;;;;5047282;28;20116;-69
2022/06/24 01:21:42;;;;;;;5.65;4.30;;;22.80;99.90;;;;;;5052549;28;20029;-69
2022/06/24 01:24:08;;;;;;;5.05;4.55;;;22.90;99.90;;;;;;5057924;28;20038;-69
2022/06/24 01:26:35;;;;;;;7.50;5.63;;;22.90;99.90;;;;;;5063898;28;20033;-69
2022/06/24 01:29:01;;;;;;;8.27;5.30;;;23.00;99.90;;;;;;5059283;28;20008;-69
2022/06/24 01:31:27;;;;;;;5.93;5.13;;;23.00;99.90;;;;;;5061024;28;20497;-68
2022/06/24 01:33:53;;;;;;;6.45;5.13;;;23.00;99.90;;;;;;5051143;28;20067;-68
2022/06/24 01:36:19;;;;;;;8.30;6.40;;;23.00;99.90;;;;;;5056842;28;20036;-69
2022/06/24 01:38:44;;;;;;;7.43;5.53;;;23.00;99.90;;;;;;5064528;28;20017;-68
2022/06/24 01:41:10;;;;;;;6.28;5.28;;;23.00;99.90;;;;;;5058105;28;20028;-68
2022/06/24 01:43:36;;;;;;;6.85;5.57;;;22.90;99.90;;;;;;5059644;28;20115;-69
2022/06/24 01:46:02;;;;;;;5.65;5.10;;;22.90;99.90;;;;;;5057800;28;20079;-68
2022/06/24 01:48:27;;;;;;;5.55;5.03;;;22.80;99.90;;;;;;5056115;28;20441;-68
2022/06/24 01:50:53;;;;;;;6.55;5.93;;;22.80;99.90;;;;;;5052368;28;20028;-68
2022/06/24 01:53:19;;;;;;;6.85;6.15;;;22.70;99.90;;;;;;5059703;28;20623;-69
2022/06/24 01:55:44;;;;;;;9.20;6.13;;;22.80;99.90;;;;;;5055172;28;20488;-68
2022/06/24 01:58:10;;;;;;;7.38;6.68;;;22.80;99.90;;;;;;5057667;28;20106;-68
2022/06/24 02:00:36;;;;;;;7.80;7.00;;;22.80;99.90;;;;;;5057690;28;20022;-69
2022/06/24 02:03:06;;;;;;;8.07;6.45;;;22.80;99.90;;;;;;5051918;28;20025;-68
2022/06/24 02:05:32;;;;;;;8.07;7.28;;;22.80;99.90;;;;;;5053172;28;20021;-69
2022/06/24 02:07:58;;;;;;;7.78;6.93;;;22.70;99.90;;;;;;5066238;28;20108;-68
2022/06/24 02:13:28;;;;;;;7.35;6.65;;;22.70;99.90;;;;;;5045378;28;20087;-69
2022/06/24 02:15:58;;;;;;;7.45;6.72;;;22.70;99.90;;;;;;5058466;28;20389;-68
2022/06/24 02:18:26;;;;;;;9.27;7.38;;;22.70;99.90;;;;;;5047417;28;20025;-69
2022/06/24 02:20:52;;;;;;;8.57;7.68;;;22.70;99.90;;;;;;5057049;28;20095;-68
2022/06/24 02:23:20;;;;;;;8.52;7.78;;;22.70;99.90;;;;;;5058563;28;20033;-69
2022/06/24 02:25:47;;;;;;;8.35;7.53;;;22.50;99.90;;;;;;5053363;28;20123;-69
2022/06/24 02:28:13;;;;;;;10.13;8.02;;;22.50;99.90;;;;;;5053955;28;20032;-69
2022/06/24 02:30:40;;;;;;;10.43;8.63;;;22.50;99.90;;;;;;5064037;28;20032;-69
2022/06/24 02:33:07;;;;;;;10.25;9.25;;;22.50;99.90;;;;;;5046674;28;20440;-69
2022/06/24 02:35:33;;;;;;;12.90;9.10;;;22.30;99.90;;;;;;5057617;28;20021;-69
2022/06/24 02:37:59;;;;;;;10.23;8.38;;;22.20;99.90;;;;;;5046673;28;20105;-69
2022/06/24 02:43:19;;;;;;;10.05;9.05;;;22.40;99.90;;;;;;5051526;28;20059;-69
2022/06/24 02:45:48;;;;;;;9.68;8.77;;;22.50;99.90;;;;;;5052455;28;20048;-69
2022/06/24 02:48:15;;;;;;;10.50;8.85;;;22.40;99.90;;;;;;5059601;28;20021;-69
2022/06/24 02:50:42;;;;;;;10.55;9.30;;;22.40;99.90;;;;;;5058233;28;20024;-68
2022/06/24 02:53:09;;;;;;;10.90;8.48;;;22.40;99.90;;;;;;5054842;28;20489;-69
2022/06/24 02:55:36;;;;;;;11.15;9.75;;;22.50;99.90;;;;;;5065668;28;20461;-68
2022/06/24 02:58:02;;;;;;;10.57;8.63;;;22.40;99.90;;;;;;5059544;28;20120;-69
2022/06/24 03:00:28;;;;;;;11.15;10.15;;;22.40;99.90;;;;;;5058564;28;20424;-69
2022/06/24 03:02:54;;;;;;;11.88;9.82;;;22.40;99.90;;;;;;5057599;28;20036;-68
2022/06/24 03:05:19;;;;;;;13.25;9.90;;;22.40;99.90;;;;;;5057058;28;20047;-69
2022/06/24 03:07:45;;;;;;;11.02;10.02;;;22.40;99.90;;;;;;5059141;28;20027;-69
2022/06/24 03:10:11;;;;;;;10.55;9.48;;;22.40;99.90;;;;;;5053279;28;20032;-68
2022/06/24 03:12:37;;;;;;;12.95;11.55;;;22.30;99.90;;;;;;5046663;28;20067;-68
2022/06/24 03:15:03;;;;;;;12.48;10.95;;;22.30;99.90;;;;;;5058569;28;20024;-68
2022/06/24 03:17:28;;;;;;;11.38;10.25;;;22.30;99.90;;;;;;5053926;28;20444;-68
2022/06/24 03:19:54;;;;;;;12.15;11.00;;;22.40;99.90;;;;;;5055167;28;20524;-69
2022/06/24 03:22:20;;;;;;;15.07;10.27;;;22.30;99.90;;;;;;5045388;28;20037;-69
2022/06/24 03:24:45;;;;;;;11.43;10.30;;;22.30;99.90;;;;;;5053450;28;20058;-69
2022/06/24 03:27:11;;;;;;;11.32;10.23;;;22.40;99.90;;;;;;5049099;28;20036;-69
2022/06/24 03:29:37;;;;;;;12.25;11.05;;;22.40;99.90;;;;;;5057566;28;20025;-69
2022/06/24 03:32:03;;;;;;;13.18;11.05;;;22.30;99.90;;;;;;5057437;28;20024;-68
2022/06/24 03:34:28;;;;;;;12.57;11.30;;;22.30;99.90;;;;;;5054823;28;20056;-68
2022/06/24 03:36:54;;;;;;;12.15;10.93;;;22.40;99.90;;;;;;5065860;28;20355;-69
2022/06/24 03:39:19;;;;;;;11.48;10.32;;;22.40;99.90;;;;;;5053036;28;20063;-68
2022/06/24 03:41:45;;;;;;;12.00;10.90;;;22.40;99.90;;;;;;5061277;28;20507;-69
2022/06/24 03:44:11;;;;;;;12.57;11.30;;;22.40;99.90;;;;;;5057755;28;20033;-68
2022/06/24 03:46:36;;;;;;;10.98;9.80;;;22.20;99.90;;;;;;5052826;28;20056;-69
2022/06/24 03:49:02;;;;;;;12.73;10.68;;;22.20;99.90;;;;;;5053548;28;20443;-69
2022/06/24 03:51:27;;;;;;;11.65;10.40;;;22.20;99.90;;;;;;5062508;28;20461;-68
2022/06/24 03:53:53;;;;;;;10.57;8.95;;;22.20;99.90;;;;;;5053271;28;20039;-69
2022/06/24 03:56:19;;;;;;;11.95;10.15;;;22.10;99.90;;;;;;5056635;28;20466;-68
2022/06/24 03:58:44;;;;;;;13.60;10.38;;;22.00;99.90;;;;;;5060790;28;20024;-69
2022/06/24 04:01:10;;;;;;;12.40;11.13;;;22.10;99.90;;;;;;5058780;28;20024;-69
2022/06/24 04:03:36;;;;;;;12.25;11.02;;;22.20;99.90;;;;;;5057179;28;20033;-68
2022/06/24 04:06:01;;;;;;;12.38;11.18;;;22.20;99.90;;;;;;5047563;28;20437;-69
2022/06/24 04:08:28;;;;;;;12.00;10.23;;;22.20;99.90;;;;;;5058516;28;20036;-68
2022/06/24 04:10:54;;;;;;;11.70;10.50;;;22.10;99.90;;;;;;5059627;28;20048;-69
2022/06/24 04:13:19;;;;;;;14.05;10.48;;;22.20;99.90;;;;;;5047514;28;20052;-68
2022/06/24 04:15:51;;;;;;;10.85;9.57;;;22.20;99.90;;;;;;5051768;28;20017;-69
2022/06/24 04:18:17;;;;;;;13.73;11.27;;;22.30;99.90;;;;;;5050173;28;20516;-69
2022/06/24 04:20:42;;;;;;;10.73;9.65;;;22.30;99.90;;;;;;5058695;28;20059;-68
2022/06/24 04:23:08;;;;;;;11.70;10.50;;;22.20;99.90;;;;;;5054113;28;20037;-69
2022/06/24 04:25:34;;;;;;;11.40;10.40;;;22.20;99.90;;;;;;5050320;28;20055;-68
2022/06/24 04:28:01;;;;;;;11.35;10.27;;;22.10;99.90;;;;;;5058111;28;20033;-68
2022/06/24 04:30:26;;;;;;;15.38;11.60;;;22.20;99.90;;;;;;5062640;28;20025;-68
2022/06/24 04:32:52;;;;;;;14.18;12.60;;;22.10;99.90;;;;;;5057850;28;20036;-68
2022/06/24 04:35:18;;;;;;;14.52;12.07;;;22.20;99.90;;;;;;5054107;28;20025;-68
2022/06/24 04:37:44;;;;;;;13.23;11.63;;;22.20;99.90;;;;;;5055855;28;20021;-68
2022/06/24 04:40:13;;;;;;;16.40;12.75;;;22.20;99.90;;;;;;5061241;28;20041;-68
2022/06/24 04:42:40;;;;;;;15.02;13.05;;;22.20;99.90;;;;;;5042188;28;20382;-68
2022/06/24 04:45:07;;;;;;;15.05;11.65;;;22.20;99.90;;;;;;5051920;28;20047;-69
2022/06/24 04:47:32;;;;;;;14.77;10.73;;;22.10;99.90;;;;;;5049294;28;22082;-68
2022/06/24 04:49:58;;;;;;;14.55;11.63;;;22.20;99.90;;;;;;5053620;28;20021;-68
2022/06/24 04:52:24;;;;;;;13.80;11.73;;;22.20;99.90;;;;;;5061380;28;20052;-68
2022/06/24 04:54:50;;;;;;;14.35;12.95;;;22.10;99.90;;;;;;5051231;28;20033;-69
2022/06/24 04:57:16;;;;;;;14.35;12.38;;;22.20;99.90;;;;;;5062439;28;20425;-69
2022/06/24 04:59:42;;;;;;;17.23;13.32;;;22.30;99.90;;;;;;5048158;28;20026;-69
2022/06/24 05:02:08;;;;;;;17.42;12.70;;;22.20;99.90;;;;;;5053644;28;20474;-69
2022/06/24 05:04:35;;;;;;;15.63;12.48;;;22.10;99.90;;;;;;5063442;28;20036;-69
2022/06/24 05:07:01;;;;;;;14.38;12.98;;;22.20;99.90;;;;;;5051956;28;20304;-69
2022/06/24 05:09:27;;;;;;;16.60;14.50;;;22.20;99.90;;;;;;5062924;28;20094;-69
2022/06/24 05:11:53;;;;;;;18.38;15.63;;;22.20;99.90;;;;;;5054177;28;20048;-69
2022/06/24 05:14:19;;;;;;;19.42;14.70;;;22.10;99.90;;;;;;5060426;28;20036;-69
2022/06/24 05:16:44;;;;;;;16.50;14.82;;;22.20;99.90;;;;;;5056749;28;20025;-69
2022/06/24 05:19:11;;;;;;;17.55;15.00;;;22.30;99.90;;;;;;5062123;28;20017;-69
2022/06/24 05:21:36;;;;;;;17.15;15.35;;;22.30;99.90;;;;;;5056388;28;20031;-69
2022/06/24 05:24:03;;;;;;;17.35;14.90;;;22.30;99.90;;;;;;5060480;28;20029;-69
2022/06/24 05:26:28;;;;;;;19.13;14.88;;;22.30;99.90;;;;;;5047015;28;20201;-70
2022/06/24 05:28:54;;;;;;;16.90;15.20;;;22.30;99.90;;;;;;5061678;28;20021;-70
2022/06/24 05:31:20;;;;;;;17.42;15.38;;;22.10;99.90;;;;;;5062740;28;20378;-71
2022/06/24 05:33:45;;;;;;;18.33;15.50;;;22.20;99.90;;;;;;5051766;28;20527;-70
2022/06/24 05:36:11;;;;;;;20.13;17.88;;;22.20;99.90;;;;;;5048789;28;20031;-71
2022/06/24 05:38:37;;;;;;;28.50;22.52;;;22.30;99.90;;;;;;5046914;28;20025;-71
2022/06/24 05:41:03;;;;;;;30.33;24.60;;;22.30;99.90;;;;;;5040729;28;20021;-70
2022/06/24 05:43:30;;;;;;;33.42;29.83;;;22.20;99.90;;;;;;5052829;28;20033;-70
2022/06/24 05:45:56;;;;;;;36.85;32.72;;;22.20;99.90;;;;;;5047319;28;20033;-70
2022/06/24 05:48:21;;;;;;;36.03;31.05;;;22.30;99.90;;;;;;5042490;28;20033;-70
2022/06/24 05:50:47;;;;;;;38.42;28.58;;;22.30;99.90;;;;;;5047178;28;20029;-70
2022/06/24 05:55:59;;;;;;;34.50;29.92;;;22.30;99.90;;;;;;5034226;28;20106;-70
2022/06/24 05:58:26;;;;;;;32.28;26.33;;;22.30;99.90;;;;;;5036479;28;20154;-70
2022/06/24 06:00:54;;;;;;;30.48;27.25;;;22.30;99.90;;;;;;5053888;28;20043;-70
2022/06/24 06:03:23;;;;;;;33.50;28.08;;;22.30;99.90;;;;;;5053118;28;20506;-70
2022/06/24 06:05:49;;;;;;;30.90;26.58;;;22.40;99.90;;;;;;5053737;28;20013;-70
2022/06/24 06:08:16;;;;;;;29.30;24.60;;;22.30;99.90;;;;;;5044794;28;20055;-70
2022/06/24 06:10:43;;;;;;;23.40;20.95;;;22.20;99.90;;;;;;5037600;28;20017;-70
2022/06/24 06:13:13;;;;;;;24.15;21.35;;;22.20;99.90;;;;;;5052567;28;20028;-70
2022/06/24 06:15:40;;;;;;;24.98;19.80;;;22.20;99.90;;;;;;5049756;28;20151;-70
2022/06/24 06:18:06;;;;;;;27.42;21.13;;;22.20;99.90;;;;;;5047073;28;20021;-70
2022/06/24 06:20:32;;;;;;;27.80;20.98;;;22.20;99.90;;;;;;5053986;28;20032;-70
2022/06/24 06:22:58;;;;;;;24.83;18.77;;;22.20;99.90;;;;;;5048810;28;20473;-70
2022/06/24 06:25:24;;;;;;;23.20;18.88;;;22.20;99.90;;;;;;5046986;28;20063;-70
2022/06/24 06:27:50;;;;;;;22.52;19.58;;;22.10;99.90;;;;;;5053639;28;20017;-70
2022/06/24 06:30:16;;;;;;;26.23;21.05;;;22.20;99.90;;;;;;5051892;28;20036;-71
2022/06/24 06:32:42;;;;;;;24.60;22.08;;;22.20;99.90;;;;;;5053010;28;20381;-71
2022/06/24 06:35:08;;;;;;;26.35;20.85;;;22.20;99.90;;;;;;5053172;28;20453;-71
2022/06/24 06:37:34;;;;;;;26.13;20.60;;;22.20;99.90;;;;;;5051569;28;20017;-71
2022/06/24 06:40:00;;;;;;;32.38;23.02;;;22.20;99.90;;;;;;5052552;28;20029;-71
2022/06/24 06:42:25;;;;;;;27.70;23.60;;;22.10;99.90;;;;;;5050274;28;20071;-70
2022/06/24 06:44:51;;;;;;;28.75;23.73;;;22.20;99.90;;;;;;5043304;28;20044;-70
2022/06/24 06:47:17;;;;;;;26.58;21.83;;;22.20;99.90;;;;;;5042044;28;20411;-70
2022/06/24 06:49:42;;;;;;;18.77;16.58;;;22.20;99.90;;;;;;5042595;28;20025;-69
2022/06/24 06:52:08;;;;;;;22.15;17.73;;;22.20;99.90;;;;;;5045004;28;20104;-69
2022/06/24 06:54:34;;;;;;;23.33;16.67;;;22.30;99.90;;;;;;5046308;28;20025;-69
2022/06/24 06:57:00;;;;;;;19.90;17.45;;;22.30;99.90;;;;;;5043907;28;20036;-69
2022/06/24 06:59:26;;;;;;;18.00;15.80;;;22.30;99.90;;;;;;5043525;28;20519;-69
2022/06/24 07:01:51;;;;;;;22.05;18.92;;;22.20;99.90;;;;;;5046527;28;20025;-69
2022/06/24 07:04:17;;;;;;;20.90;17.80;;;22.30;99.90;;;;;;5043091;28;20164;-69
2022/06/24 07:06:43;;;;;;;19.00;17.00;;;22.30;99.90;;;;;;5034944;28;20393;-69
2022/06/24 07:09:08;;;;;;;19.90;17.42;;;22.40;99.90;;;;;;5051919;28;20520;-69
2022/06/24 07:11:34;;;;;;;20.02;16.38;;;22.50;99.90;;;;;;5055197;28;20388;-69
2022/06/24 07:14:00;;;;;;;12.70;11.38;;;22.50;99.90;;;;;;5039500;28;20033;-69
2022/06/24 07:16:26;;;;;;;13.93;12.52;;;22.40;99.90;;;;;;5041285;28;20039;-69
2022/06/24 07:18:51;;;;;;;18.73;12.93;;;22.40;99.90;;;;;;5031245;28;20021;-69
2022/06/24 07:21:17;;;;;;;13.93;10.70;;;22.30;99.90;;;;;;5032318;28;20455;-69
2022/06/24 07:23:43;;;;;;;10.95;9.85;;;22.30;99.90;;;;;;5052114;28;20105;-69
2022/06/24 07:26:09;;;;;;;11.48;10.25;;;22.30;99.90;;;;;;5052390;28;20032;-69
2022/06/24 07:28:36;;;;;;;11.75;10.00;;;22.30;99.90;;;;;;5052497;28;20108;-69
2022/06/24 07:31:15;;;;;;;11.18;10.07;;;22.30;99.90;;;;;;5052181;28;20096;-69
2022/06/24 07:33:41;;;;;;;11.88;10.43;;;22.30;99.90;;;;;;5052575;28;20036;-69
2022/06/24 07:36:06;;;;;;;11.75;10.65;;;22.30;99.90;;;;;;5052542;28;20021;-69
2022/06/24 07:38:32;;;;;;;11.10;10.00;;;22.30;99.90;;;;;;5039567;28;20504;-69
2022/06/24 07:40:58;;;;;;;10.75;9.80;;;22.40;99.90;;;;;;5046312;28;20474;-69
2022/06/24 07:43:24;;;;;;;10.02;9.10;;;22.40;99.90;;;;;;5048054;28;20045;-69
2022/06/24 07:45:51;;;;;;;11.48;10.27;;;22.40;99.90;;;;;;5049071;28;20043;-69
2022/06/24 07:48:17;;;;;;;11.10;9.98;;;22.50;99.90;;;;;;5054891;28;20055;-69
2022/06/24 07:50:43;;;;;;;10.60;9.70;;;22.40;99.90;;;;;;5058002;28;20060;-69
2022/06/24 07:53:09;;;;;;;10.75;9.77;;;22.50;99.90;;;;;;5052274;28;20013;-69
2022/06/24 07:58:19;;;;;;;12.65;11.38;;;22.50;99.90;;;;;;5055266;28;20781;-69
2022/06/24 08:00:44;;;;;;;14.07;10.70;;;22.50;99.90;;;;;;5056243;28;20041;-69
2022/06/24 08:03:10;;;;;;;11.18;10.18;;;22.60;99.90;;;;;;5055404;28;20040;-69
2022/06/24 08:05:36;;;;;;;10.05;9.05;;;22.60;99.90;;;;;;5054633;28;20025;-69
2022/06/24 08:08:02;;;;;;;9.85;8.85;;;22.60;99.90;;;;;;5036369;28;20531;-69
2022/06/24 08:10:28;;;;;;;9.93;8.95;;;22.60;99.90;;;;;;5053943;28;20033;-69
2022/06/24 08:12:54;;;;;;;9.68;8.70;;;22.70;99.90;;;;;;5054509;28;20025;-72
2022/06/24 08:15:19;;;;;;;8.88;8.07;;;22.70;99.90;;;;;;5044157;28;20044;-72
2022/06/24 08:17:45;;;;;;;10.68;9.50;;;22.80;99.90;;;;;;5036161;28;20056;-72
2022/06/24 08:20:11;;;;;;;13.45;9.98;;;22.80;99.90;;;;;;5035492;28;20026;-70
2022/06/24 08:22:36;;;;;;;10.15;8.40;;;22.90;99.90;;;;;;5035781;28;20025;-70
2022/06/24 08:25:02;;;;;;;8.02;7.28;;;22.80;99.90;;;;;;5040168;28;20035;-70
2022/06/24 08:27:28;;;;;;;9.50;7.63;;;22.80;99.90;;;;;;5054660;28;20021;-70
2022/06/24 08:29:54;;;;;;;8.05;7.28;;;23.00;99.90;;;;;;5074609;28;20484;-70
2022/06/24 08:32:19;;;;;;;9.43;6.28;;;23.00;99.90;;;;;;5059825;28;20040;-70
2022/06/24 08:34:45;;;;;;;5.22;4.72;;;23.20;99.90;;;;;;5053754;28;20470;-70
2022/06/24 08:37:11;;;;;;;4.55;4.05;;;23.40;99.90;;;;;;5034180;28;20441;-70
2022/06/24 08:39:36;;;;;;;6.72;4.28;;;23.40;99.90;;;;;;5035654;28;20382;-70
2022/06/24 08:42:04;;;;;;;4.25;3.22;;;23.50;99.90;;;;;;5035483;28;20386;-70
2022/06/24 08:44:30;;;;;;;3.45;2.83;;;23.70;99.90;;;;;;5041330;28;20214;-70
2022/06/24 08:46:55;;;;;;;3.08;2.75;;;23.70;99.90;;;;;;5055605;28;20108;-70
2022/06/24 08:49:21;;;;;;;2.85;2.65;;;23.80;99.90;;;;;;5055685;28;20043;-70
2022/06/24 08:51:49;;;;;;;2.85;2.58;;;23.70;99.90;;;;;;5055306;28;20021;-70
2022/06/24 08:54:18;;;;;;;6.93;3.03;;;23.90;99.90;;;;;;5055633;28;20048;-70
2022/06/24 08:56:44;;;;;;;3.83;3.53;;;23.90;99.90;;;;;;5041563;28;20036;-70
2022/06/24 08:59:10;;;;;;;4.10;2.17;;;24.00;99.90;;;;;;5035693;28;20030;-69
2022/06/24 09:01:42;;;;;;;2.40;2.08;;;24.00;99.90;;;;;;5042406;28;20044;-69
2022/06/24 09:04:10;;;;;;;3.03;1.70;;;24.20;99.90;;;;;;5034405;28;20033;-70
2022/06/24 09:06:40;;;;;;;3.97;2.95;;;24.20;99.90;;;;;;5052813;28;20268;-70
2022/06/24 09:09:06;;;;;;;4.97;2.45;;;24.40;99.90;;;;;;5055367;28;20482;-70
2022/06/24 09:11:42;;;;;;;3.13;2.92;;;24.70;99.90;;;;;;5054333;28;20018;-70
2022/06/24 09:14:09;;;;;;;2.70;2.20;;;24.80;99.90;;;;;;5053541;28;20025;-70
2022/06/24 09:16:37;;;;;;;2.95;2.50;;;24.80;99.90;;;;;;5054462;28;20032;-70
2022/06/24 09:19:05;;;;;;;4.63;3.10;;;25.00;99.90;;;;;;5054711;28;20108;-70
2022/06/24 09:21:39;;;;;;;5.70;3.42;;;25.20;99.90;;;;;;5053842;28;20044;-70
2022/06/24 09:24:06;;;;;;;5.35;3.20;;;25.30;99.90;;;;;;5054607;28;20033;-70
2022/06/24 09:26:41;;;;;;;4.05;3.03;;;25.30;99.90;;;;;;5054436;28;20025;-69
2022/06/24 09:29:10;;;;;;;3.40;3.10;;;25.30;99.90;;;;;;5051702;28;20036;-70
2022/06/24 09:31:38;;;;;;;5.45;3.83;;;25.40;99.90;;;;;;5048307;28;20458;-70
2022/06/24 09:34:09;;;;;;;4.55;3.42;;;25.40;99.90;;;;;;5054591;28;20033;-70
2022/06/24 09:36:37;;;;;;;3.38;3.10;;;25.50;99.90;;;;;;5054494;28;20473;-70
2022/06/24 09:39:08;;;;;;;5.80;3.20;;;25.60;99.90;;;;;;5054408;28;20040;-70
2022/06/24 09:42:06;;;;;;;4.05;3.42;;;25.60;99.90;;;;;;5054829;28;20100;-70
2022/06/24 09:44:44;;;;;;;4.32;3.92;;;25.70;99.90;;;;;;5044975;28;20049;-70
2022/06/24 09:47:10;;;;;;;4.55;3.53;;;25.50;99.90;;;;;;5054635;28;20432;-70
2022/06/24 09:49:36;;;;;;;6.93;3.55;;;25.20;99.90;;;;;;5054028;28;20025;-69
2022/06/24 09:52:02;;;;;;;4.05;3.65;;;25.10;99.90;;;;;;5054446;28;20033;-70
2022/06/24 09:54:28;;;;;;;4.15;3.75;;;25.10;99.90;;;;;;5053773;28;20104;-71
2022/06/24 09:56:56;;;;;;;3.97;3.55;;;25.50;99.90;;;;;;5048685;28;20029;-70
2022/06/24 10:02:15;;;;;;;4.20;3.70;;;25.40;99.90;;;;;;5040462;28;20048;-70
2022/06/24 10:04:41;;;;;;;4.60;4.20;;;25.20;99.90;;;;;;5039081;28;20480;-70
2022/06/24 10:07:07;;;;;;;5.53;4.38;;;25.10;99.90;;;;;;5049625;28;20393;-70
2022/06/24 10:09:36;;;;;;;6.47;5.05;;;25.20;99.90;;;;;;5052763;28;20029;-70
2022/06/24 10:12:02;;;;;;;4.85;4.40;;;25.10;99.90;;;;;;5067489;28;20024;-70
2022/06/24 10:14:29;;;;;;;5.75;4.35;;;25.10;99.90;;;;;;5069786;28;20031;-70
2022/06/24 10:16:57;;;;;;;4.03;3.63;;;25.40;99.90;;;;;;5058723;28;20027;-70
2022/06/24 10:19:26;;;;;;;4.30;4.00;;;25.40;99.90;;;;;;5068101;28;20054;-70
2022/06/24 10:21:52;;;;;;;4.65;3.53;;;25.40;99.90;;;;;;5059002;28;20021;-70
2022/06/24 10:24:18;;;;;;;4.30;3.90;;;25.30;99.90;;;;;;5054690;28;20098;-72
2022/06/24 10:26:48;;;;;;;4.00;3.67;;;25.20;99.90;;;;;;5053874;28;20444;-71
2022/06/24 10:29:13;;;;;;;5.00;4.03;;;25.20;99.90;;;;;;5050237;28;20036;-71
2022/06/24 10:31:42;;;;;;;3.58;3.30;;;25.20;99.90;;;;;;5056449;28;20032;-73
2022/06/24 10:34:32;;;;;;;5.25;2.78;;;24.80;99.90;;;;;;5049222;28;20061;-73
2022/06/24 10:37:02;;;;;;;2.22;1.88;;;24.60;99.90;;;;;;5054101;28;20013;-74
2022/06/24 10:39:30;;;;;;;1.80;1.70;;;24.30;99.90;;;;;;5057599;28;20033;-72
2022/06/24 10:42:05;;;;;;;1.70;1.60;;;24.00;99.90;;;;;;5066015;28;20070;-72
2022/06/24 10:44:33;;;;;;;2.30;1.30;;;23.80;99.90;;;;;;5052207;28;20443;-71
2022/06/24 10:47:05;;;;;;;1.90;1.42;;;23.60;99.90;;;;;;5059417;28;20510;-71
2022/06/24 10:49:52;;;;;;;1.92;1.60;;;23.60;99.90;;;;;;5060875;28;20082;-71
2022/06/24 10:52:51;;;;;;;1.60;1.50;;;23.50;99.90;;;;;;5054976;28;20025;-72
2022/06/24 10:55:29;;;;;;;2.03;1.90;;;23.60;99.90;;;;;;5066360;28;20384;-71
2022/06/24 10:58:08;;;;;;;4.43;1.65;;;24.10;99.90;;;;;;5050619;28;20394;-70
2022/06/24 11:00:43;;;;;;;1.67;1.58;;;24.10;99.90;;;;;;5042105;28;20040;-70
2022/06/24 11:03:08;;;;;;;3.20;2.00;;;24.10;99.90;;;;;;5050095;28;20029;-70
2022/06/24 11:05:45;;;;;;;3.08;1.70;;;24.20;99.90;;;;;;5039853;28;20029;-71
2022/06/24 11:08:20;;;;;;;2.42;1.73;;;24.30;99.90;;;;;;5052276;28;20021;-70
2022/06/24 11:10:47;;;;;;;3.10;2.40;;;24.30;99.90;;;;;;5052256;28;20018;-70
2022/06/24 11:13:13;;;;;;;2.40;2.20;;;24.20;99.90;;;;;;5051390;28;20036;-70
2022/06/24 11:15:49;;;;;;;3.78;1.83;;;24.00;99.90;;;;;;5048580;28;20029;-71
2022/06/24 11:18:26;;;;;;;3.25;2.33;;;24.10;99.90;;;;;;5060631;28;20530;-72
2022/06/24 11:20:59;;;;;;;2.85;2.30;;;24.10;99.90;;;;;;5054938;28;20029;-71
2022/06/24 11:23:30;;;;;;;3.47;2.00;;;24.10;99.90;;;;;;5051245;28;20048;-71
2022/06/24 11:26:00;;;;;;;2.80;2.30;;;23.90;99.90;;;;;;5050136;28;20381;-72
2022/06/24 11:28:29;;;;;;;2.40;2.20;;;24.00;99.90;;;;;;5047933;28;20783;-72
2022/06/24 11:31:12;;;;;;;2.53;1.98;;;23.90;99.90;;;;;;5052472;28;20389;-71
2022/06/24 11:33:38;;;;;;;2.30;1.80;;;24.10;99.90;;;;;;5055043;28;20036;-71
2022/06/24 11:36:03;;;;;;;1.60;1.38;;;24.30;99.90;;;;;;5054949;28;20117;-71
2022/06/24 11:38:29;;;;;;;2.22;1.23;;;24.40;99.90;;;;;;5058288;28;20551;-71
2022/06/24 11:40:56;;;;;;;1.75;1.60;;;24.30;99.90;;;;;;5059886;28;20095;-70
2022/06/24 11:43:21;;;;;;;2.08;1.70;;;24.50;99.90;;;;;;5049380;28;20033;-71
2022/06/24 11:45:49;;;;;;;1.05;1.05;;;25.00;99.90;;;;;;5057824;28;20079;-70
2022/06/24 11:48:22;;;;;;;0.80;0.80;;;24.90;99.90;;;;;;5047558;28;20028;-71
2022/06/24 11:50:49;;;;;;;0.95;0.90;;;25.10;99.90;;;;;;5053736;28;20068;-71
2022/06/24 11:53:16;;;;;;;1.95;1.20;;;25.30;99.90;;;;;;5054336;28;20025;-71
2022/06/24 11:55:47;;;;;;;1.20;1.02;;;25.40;99.90;;;;;;5050709;28;20029;-71
2022/06/24 11:58:18;;;;;;;3.10;1.63;;;25.60;99.90;;;;;;5044658;28;20424;-71
2022/06/24 12:00:44;;;;;;;1.10;1.00;;;25.70;99.90;;;;;;5051001;28;20120;-70
2022/06/24 12:03:12;;;;;;;1.15;1.10;;;25.70;99.90;;;;;;5050931;28;20110;-71
2022/06/24 12:05:40;;;;;;;1.55;1.42;;;26.00;99.90;;;;;;5060252;28;20025;-71
2022/06/24 12:08:07;;;;;;;2.00;0.90;;;26.10;99.90;;;;;;5048852;28;20373;-70
2022/06/24 12:10:35;;;;;;;1.75;1.08;;;26.30;99.90;;;;;;5052305;28;20134;-71
2022/06/24 12:13:05;;;;;;;1.17;0.93;;;26.40;99.90;;;;;;5051946;28;20602;-71
2022/06/24 12:15:37;;;;;;;2.95;1.48;;;26.40;99.90;;;;;;5057359;28;20025;-71
2022/06/24 12:18:15;;;;;;;2.40;1.43;;;26.40;99.90;;;;;;5058483;28;20034;-70
2022/06/24 12:20:41;;;;;;;2.15;1.70;;;26.20;99.90;;;;;;5051858;28;20123;-70
2022/06/24 12:23:19;;;;;;;1.50;1.40;;;26.20;99.90;;;;;;5054075;28;20422;-70
2022/06/24 12:25:49;;;;;;;2.70;1.70;;;26.00;99.90;;;;;;5049921;28;20033;-71
2022/06/24 12:28:21;;;;;;;1.77;1.20;;;26.00;99.90;;;;;;5050319;28;20021;-70
2022/06/24 12:31:02;;;;;;;2.13;1.17;;;26.20;99.90;;;;;;5063874;28;20124;-70
2022/06/24 12:33:30;;;;;;;1.50;1.20;;;26.30;99.90;;;;;;5055055;28;20568;-71
2022/06/24 12:36:14;;;;;;;2.00;1.60;;;26.20;99.90;;;;;;5050491;28;20029;-70
2022/06/24 12:38:52;;;;;;;1.92;1.63;;;26.20;99.90;;;;;;5052110;28;20029;-70
2022/06/24 12:41:20;;;;;;;2.45;2.10;;;25.90;99.90;;;;;;5063294;28;20037;-70
2022/06/24 12:43:59;;;;;;;1.58;1.48;;;26.00;99.90;;;;;;5061182;28;20029;-71
2022/06/24 12:46:37;;;;;;;2.03;1.83;;;26.00;99.90;;;;;;5057782;28;20393;-71
2022/06/24 12:51:59;;;;;;;1.48;1.38;;;26.00;99.90;;;;;;5062031;28;20174;-71
2022/06/24 12:54:25;;;;;;;1.83;1.50;;;26.00;99.90;;;;;;5051356;28;20483;-72
2022/06/24 12:56:51;;;;;;;2.70;1.98;;;26.30;99.90;;;;;;5049327;28;20494;-70
2022/06/24 12:59:17;;;;;;;1.45;1.35;;;26.40;99.90;;;;;;5063354;28;20381;-71